Time;durP1;ratioP1;P1;durP2;ratioP2;P2;SDS_P1;SDS_P2;PMS_P1;PMS_P2;Temp;Humidity;BMP_temperature;BMP_pressure;BME280_temperature;BME280_humidity;BME280_pressure;Samples;Min_cycle;Max_cycle;Signal;HPM_P1;HPM_P2
2022/11/20 00:00:03;;;;;;;3.50;2.20;;;9.40;99.90;9.30;99433.00;;;;341677;28;83757;-91
2022/11/20 00:00:17;;;;;;;3.60;2.25;;;9.40;99.90;9.40;99438.00;;;;341358;28;89430;-91
2022/11/20 00:00:29;;;;;;;3.75;1.98;;;9.40;99.90;9.50;99440.00;;;;341819;28;82411;-90
2022/11/20 00:00:40;;;;;;;4.40;1.92;;;9.40;99.90;9.60;99435.00;;;;341305;28;88703;-90
2022/11/20 00:00:53;;;;;;;4.40;1.83;;;9.40;99.90;9.60;99430.00;;;;343046;28;82272;-91
2022/11/20 00:01:06;;;;;;;6.03;2.53;;;9.40;99.90;9.50;99444.00;;;;339866;28;91021;-91
2022/11/20 00:01:21;;;;;;;5.35;2.70;;;9.40;99.90;9.50;99430.00;;;;340434;28;82667;-91
2022/11/20 00:01:33;;;;;;;3.83;2.25;;;9.40;99.90;9.60;99435.00;;;;339862;28;92873;-91
2022/11/20 00:01:46;;;;;;;4.15;2.20;;;9.40;99.90;9.60;99429.00;;;;341832;28;82180;-91
2022/11/20 00:01:58;;;;;;;4.00;2.20;;;9.40;99.90;9.50;99438.00;;;;342382;28;91773;-90
2022/11/20 00:02:10;;;;;;;4.75;2.55;;;9.40;99.90;9.50;99441.00;;;;340235;28;83949;-91
2022/11/20 00:02:22;;;;;;;6.10;2.70;;;9.30;99.90;9.50;99445.00;;;;340130;28;88570;-91
2022/11/20 00:02:33;;;;;;;6.60;2.70;;;9.40;99.90;9.50;99438.00;;;;341770;28;82627;-90
2022/11/20 00:02:45;;;;;;;4.88;2.00;;;9.40;99.90;9.60;99430.00;;;;342321;28;91679;-91
2022/11/20 00:02:57;;;;;;;4.15;1.90;;;9.30;99.90;9.50;99430.00;;;;342906;28;83775;-91
2022/11/20 00:03:09;;;;;;;4.68;1.95;;;9.40;99.90;9.60;99432.00;;;;342077;28;88597;-91
2022/11/20 00:03:21;;;;;;;4.55;2.20;;;9.40;99.90;9.70;99440.00;;;;343116;28;82422;-90
2022/11/20 00:03:33;;;;;;;5.00;2.70;;;9.40;99.90;9.60;99432.00;;;;341389;28;88923;-91
2022/11/20 00:03:45;;;;;;;4.00;2.42;;;9.40;99.90;9.60;99432.00;;;;340363;28;83187;-91
2022/11/20 00:03:57;;;;;;;4.30;2.33;;;9.40;99.90;9.50;99444.00;;;;342717;28;89671;-90
2022/11/20 00:04:11;;;;;;;3.95;2.00;;;9.40;99.90;9.30;99442.00;;;;343098;28;83353;-91
2022/11/20 00:04:23;;;;;;;3.67;1.92;;;9.40;99.90;9.30;99438.00;;;;341143;28;92233;-91
2022/11/20 00:04:34;;;;;;;3.05;1.70;;;9.30;99.90;9.20;99441.00;;;;341790;28;83288;-90
2022/11/20 00:04:46;;;;;;;4.47;1.70;;;9.30;99.90;9.40;99440.00;;;;340007;28;89626;-91
2022/11/20 00:04:58;;;;;;;4.45;1.90;;;9.30;99.90;9.50;99442.00;;;;343189;28;83297;-91
2022/11/20 00:05:10;;;;;;;2.92;1.95;;;9.30;99.90;9.60;99436.00;;;;339776;28;91663;-90
2022/11/20 00:05:22;;;;;;;3.25;1.88;;;9.30;99.90;9.70;99435.00;;;;343070;28;83333;-90
2022/11/20 00:05:34;;;;;;;3.60;2.10;;;9.30;99.90;9.60;99437.00;;;;340061;28;88652;-91
2022/11/20 00:05:45;;;;;;;4.35;2.33;;;9.30;99.90;9.70;99435.00;;;;342766;28;83918;-91
2022/11/20 00:06:05;;;;;;;4.28;2.50;;;9.30;99.90;9.50;99442.00;;;;342631;28;89583;-91
2022/11/20 00:06:18;;;;;;;3.22;2.33;;;9.30;99.90;9.50;99446.00;;;;343073;28;83349;-91
2022/11/20 00:06:30;;;;;;;3.70;2.38;;;9.30;99.90;9.50;99444.00;;;;344138;28;89589;-91
2022/11/20 00:06:42;;;;;;;4.10;2.35;;;9.30;99.90;9.60;99447.00;;;;343091;28;83477;-91
2022/11/20 00:06:53;;;;;;;4.05;2.40;;;9.30;99.90;9.80;99437.00;;;;341409;28;88833;-91
2022/11/20 00:07:05;;;;;;;3.72;2.25;;;9.30;99.90;9.80;99443.00;;;;342517;28;83523;-91
2022/11/20 00:07:17;;;;;;;3.60;1.92;;;9.40;99.90;9.90;99436.00;;;;343717;28;91217;-90
2022/11/20 00:07:29;;;;;;;3.17;1.90;;;9.40;99.90;10.00;99438.00;;;;341767;28;82993;-91
2022/11/20 00:07:41;;;;;;;3.55;2.03;;;9.40;99.90;9.90;99435.00;;;;341434;28;89870;-91
2022/11/20 00:07:53;;;;;;;3.33;1.90;;;9.40;99.90;9.90;99442.00;;;;341704;28;83460;-89
2022/11/20 00:08:04;;;;;;;3.85;2.13;;;9.50;99.90;9.80;99440.00;;;;342621;28;92722;-91
2022/11/20 00:08:16;;;;;;;3.74;2.16;;;9.50;99.90;9.90;99436.00;;;;341725;28;83187;-91
2022/11/20 00:08:28;;;;;;;3.15;2.13;;;9.50;99.90;9.80;99442.00;;;;342366;28;90705;-90
2022/11/20 00:08:40;;;;;;;3.05;2.15;;;9.50;99.90;9.90;99443.00;;;;342787;28;84452;-91
2022/11/20 00:08:55;;;;;;;4.70;2.25;;;9.50;99.90;9.80;99444.00;;;;339918;28;93363;-91
2022/11/20 00:09:09;;;;;;;6.25;2.47;;;9.50;99.90;9.90;99447.00;;;;341813;28;83368;-91
2022/11/20 00:09:21;;;;;;;5.60;2.60;;;9.50;99.90;9.90;99432.00;;;;341339;28;88385;-90
2022/11/20 00:09:33;;;;;;;4.68;2.38;;;9.50;99.90;9.70;99435.00;;;;341803;28;83382;-91
2022/11/20 00:09:45;;;;;;;3.80;2.17;;;9.50;99.90;9.70;99445.00;;;;342344;28;90553;-91
2022/11/20 00:09:57;;;;;;;4.05;2.20;;;9.50;99.90;9.70;99444.00;;;;341693;28;83611;-90
2022/11/20 00:10:09;;;;;;;4.20;2.35;;;9.50;99.90;9.80;99443.00;;;;341341;28;90798;-90
2022/11/20 00:10:21;;;;;;;3.97;2.05;;;9.50;99.90;9.80;99444.00;;;;340441;28;83395;-90
2022/11/20 00:10:35;;;;;;;3.65;1.88;;;9.50;99.90;9.80;99447.00;;;;340016;28;90567;-91
2022/11/20 00:10:47;;;;;;;3.65;2.20;;;9.50;99.90;9.70;99439.00;;;;341579;28;82703;-91
2022/11/20 00:11:13;;;;;;;3.40;2.22;;;9.50;99.90;9.80;99441.00;;;;342574;28;90486;-90
2022/11/20 00:11:29;;;;;;;5.55;2.67;;;9.50;99.90;9.80;99445.00;;;;340346;28;83740;-91
2022/11/20 00:11:41;;;;;;;4.72;2.13;;;9.50;99.90;9.80;99447.00;;;;344133;28;89899;-91
2022/11/20 00:11:53;;;;;;;5.75;1.92;;;9.60;99.90;9.80;99443.00;;;;341779;28;82432;-90
2022/11/20 00:12:05;;;;;;;6.53;2.38;;;9.60;99.90;9.80;99437.00;;;;343779;28;90754;-91
2022/11/20 00:12:17;;;;;;;7.72;2.58;;;9.60;99.90;9.80;99433.00;;;;341357;28;82508;-90
2022/11/20 00:12:29;;;;;;;5.90;2.60;;;9.60;99.90;9.70;99427.00;;;;341200;28;90190;-90
2022/11/20 00:12:41;;;;;;;4.75;2.47;;;9.60;99.90;9.80;99440.00;;;;344453;28;83262;-91
2022/11/20 00:12:53;;;;;;;4.78;2.30;;;9.60;99.90;9.70;99439.00;;;;343772;28;89821;-91
2022/11/20 00:13:05;;;;;;;5.85;2.17;;;9.60;99.90;9.80;99439.00;;;;340358;28;84920;-91
2022/11/20 00:13:17;;;;;;;5.50;2.05;;;9.60;99.90;9.70;99436.00;;;;341321;28;89090;-90
2022/11/20 00:13:29;;;;;;;6.97;2.35;;;9.60;99.90;9.60;99433.00;;;;345867;28;83290;-91
2022/11/20 00:13:40;;;;;;;8.25;2.45;;;9.60;99.90;9.60;99437.00;;;;342818;28;89335;-90
2022/11/20 00:13:57;;;;;;;6.97;2.30;;;9.60;99.90;9.50;99440.00;;;;342901;28;84702;-91
2022/11/20 00:14:09;;;;;;;3.10;2.15;;;9.50;99.90;9.50;99441.00;;;;344029;28;90771;-91
2022/11/20 00:14:21;;;;;;;3.10;2.20;;;9.50;99.90;9.60;99439.00;;;;343162;28;83120;-91
2022/11/20 00:14:33;;;;;;;3.13;2.08;;;9.50;99.90;9.60;99443.00;;;;340982;28;89750;-91
2022/11/20 00:14:46;;;;;;;3.63;2.03;;;9.50;99.90;9.60;99437.00;;;;341655;28;83764;-91
2022/11/20 00:14:57;;;;;;;3.65;2.03;;;9.50;99.90;9.60;99439.00;;;;342739;28;88673;-90
2022/11/20 00:15:10;;;;;;;4.47;2.20;;;9.50;99.90;9.60;99447.00;;;;343108;28;83147;-90
2022/11/20 00:15:21;;;;;;;4.93;2.20;;;9.50;99.90;9.50;99438.00;;;;339867;28;89308;-90
2022/11/20 00:15:33;;;;;;;4.68;2.40;;;9.50;99.90;9.50;99442.00;;;;342922;28;83839;-90
2022/11/20 00:15:45;;;;;;;6.18;2.45;;;9.50;99.90;9.60;99442.00;;;;344168;28;89449;-90
2022/11/20 00:15:58;;;;;;;5.76;2.40;;;9.50;99.90;9.70;99430.00;;;;340136;28;83688;-91
2022/11/20 00:16:14;;;;;;;5.00;2.00;;;9.50;99.90;9.80;99438.00;;;;340039;28;89346;-90
2022/11/20 00:16:28;;;;;;;4.32;1.83;;;9.50;99.90;9.80;99442.00;;;;343144;28;83350;-90
2022/11/20 00:16:40;;;;;;;4.13;2.05;;;9.50;99.90;9.70;99436.00;;;;342419;28;91967;-91
2022/11/20 00:16:52;;;;;;;12.35;3.90;;;9.50;99.90;9.70;99441.00;;;;340482;28;82744;-91
2022/11/20 00:17:04;;;;;;;12.75;4.03;;;9.50;99.90;9.80;99451.00;;;;343885;28;90373;-90
2022/11/20 00:17:15;;;;;;;4.82;2.65;;;9.50;99.90;9.90;99440.00;;;;341557;28;83477;-91
2022/11/20 00:17:27;;;;;;;3.80;2.50;;;9.50;99.90;9.90;99444.00;;;;341061;28;92385;-91
2022/11/20 00:17:39;;;;;;;3.60;2.40;;;9.50;99.90;9.80;99448.00;;;;340462;28;83371;-91
2022/11/20 00:17:51;;;;;;;2.83;2.03;;;9.50;99.90;9.80;99442.00;;;;345526;28;88608;-91
2022/11/20 00:18:03;;;;;;;3.13;1.95;;;9.50;99.90;9.80;99450.00;;;;343055;28;82562;-91
2022/11/20 00:18:14;;;;;;;3.40;1.90;;;9.50;99.90;9.90;99442.00;;;;342859;28;88440;-90
2022/11/20 00:18:27;;;;;;;3.65;2.10;;;9.50;99.90;10.00;99439.00;;;;342941;28;83480;-90
2022/11/20 00:18:39;;;;;;;3.50;2.05;;;9.50;99.90;9.90;99443.00;;;;342480;28;90418;-91
2022/11/20 00:18:51;;;;;;;3.42;2.28;;;9.60;99.90;9.90;99441.00;;;;345621;28;82558;-91
2022/11/20 00:19:02;;;;;;;4.07;2.33;;;9.60;99.90;10.00;99444.00;;;;344063;28;89701;-91
2022/11/20 00:19:14;;;;;;;5.15;2.70;;;9.60;99.90;10.00;99443.00;;;;344254;28;82625;-90
2022/11/20 00:19:26;;;;;;;5.60;2.85;;;9.60;99.90;10.10;99438.00;;;;344086;28;89705;-91
2022/11/20 00:19:38;;;;;;;4.78;2.45;;;9.60;99.90;10.00;99436.00;;;;340932;28;82470;-90
2022/11/20 00:19:50;;;;;;;3.80;2.28;;;9.60;99.90;10.10;99432.00;;;;341400;28;89687;-90
2022/11/20 00:20:02;;;;;;;3.95;2.03;;;9.60;99.90;10.10;99446.00;;;;342973;28;83286;-91
2022/11/20 00:20:14;;;;;;;4.97;2.05;;;9.60;99.90;10.10;99440.00;;;;344196;28;88483;-91
2022/11/20 00:20:26;;;;;;;5.55;2.33;;;9.60;99.90;10.10;99444.00;;;;343262;28;83367;-90
2022/11/20 00:20:38;;;;;;;6.30;2.60;;;9.70;99.90;10.10;99438.00;;;;341266;28;90671;-91
2022/11/20 00:20:49;;;;;;;5.38;2.42;;;9.70;99.90;10.20;99437.00;;;;343249;28;83393;-90
2022/11/20 00:21:18;;;;;;;4.00;2.08;;;9.70;99.90;10.20;99444.00;;;;341198;28;89699;-91
2022/11/20 00:21:32;;;;;;;5.90;2.40;;;9.70;99.90;10.20;99444.00;;;;343208;28;82206;-91
2022/11/20 00:21:44;;;;;;;5.00;2.28;;;9.80;99.90;10.20;99445.00;;;;342237;28;86891;-90
2022/11/20 00:21:56;;;;;;;4.25;2.20;;;9.80;99.90;10.20;99447.00;;;;340555;28;82202;-90
2022/11/20 00:22:08;;;;;;;3.60;2.13;;;9.80;99.90;10.20;99440.00;;;;344089;28;88684;-91
2022/11/20 00:22:20;;;;;;;2.83;1.85;;;9.80;99.90;10.20;99441.00;;;;341942;28;83209;-90
2022/11/20 00:22:32;;;;;;;2.35;1.83;;;9.80;99.90;10.20;99440.00;;;;345332;28;90522;-91
2022/11/20 00:22:44;;;;;;;3.30;1.95;;;9.90;99.90;10.10;99438.00;;;;344271;28;83470;-91
2022/11/20 00:22:56;;;;;;;3.50;2.10;;;9.90;99.90;9.90;99439.00;;;;341613;28;92233;-90
2022/11/20 00:23:07;;;;;;;3.15;1.88;;;9.90;99.90;9.90;99437.00;;;;342611;28;82247;-90
2022/11/20 00:23:20;;;;;;;3.85;2.22;;;9.80;99.90;9.80;99438.00;;;;342202;28;90173;-90
2022/11/20 00:23:31;;;;;;;4.40;2.10;;;9.80;99.90;9.80;99439.00;;;;344331;28;83265;-91
2022/11/20 00:23:44;;;;;;;5.57;2.03;;;9.80;99.90;9.80;99441.00;;;;342642;28;88843;-91
2022/11/20 00:23:57;;;;;;;5.72;2.25;;;9.80;99.90;9.80;99441.00;;;;344049;28;83279;-90
2022/11/20 00:24:12;;;;;;;6.45;2.63;;;9.80;99.90;9.80;99429.00;;;;343977;28;88766;-90
2022/11/20 00:24:24;;;;;;;5.82;2.72;;;9.80;99.90;9.80;99441.00;;;;342771;28;82484;-90
2022/11/20 00:24:36;;;;;;;4.45;2.40;;;9.80;99.90;9.90;99436.00;;;;346267;28;89644;-89
2022/11/20 00:24:53;;;;;;;4.55;2.35;;;9.80;99.90;10.00;99440.00;;;;343044;28;83236;-90
2022/11/20 00:25:05;;;;;;;6.60;2.35;;;9.80;99.90;10.00;99437.00;;;;345318;28;89260;-90
2022/11/20 00:25:17;;;;;;;7.03;2.30;;;9.80;99.90;10.00;99447.00;;;;345430;28;83754;-91
2022/11/20 00:25:29;;;;;;;4.05;2.05;;;9.80;99.90;10.00;99442.00;;;;342371;28;92156;-90
2022/11/20 00:25:41;;;;;;;4.50;2.10;;;9.80;99.90;10.00;99444.00;;;;343044;28;83414;-90
2022/11/20 00:25:53;;;;;;;4.28;2.00;;;9.80;99.90;10.00;99441.00;;;;342614;28;88879;-89
2022/11/20 00:26:06;;;;;;;5.80;2.50;;;9.80;99.90;10.10;99442.00;;;;343986;28;82347;-91
2022/11/20 00:26:19;;;;;;;5.28;2.50;;;9.80;99.90;9.80;99442.00;;;;344095;28;87818;-89
2022/11/20 00:26:31;;;;;;;4.40;2.10;;;9.80;99.90;9.80;99452.00;;;;344387;28;83425;-90
2022/11/20 00:26:43;;;;;;;4.40;2.20;;;9.80;99.90;9.80;99448.00;;;;342578;28;88422;-91
2022/11/20 00:26:55;;;;;;;4.25;2.05;;;9.70;99.90;9.90;99443.00;;;;341369;28;83421;-92
2022/11/20 00:27:07;;;;;;;4.57;2.00;;;9.70;99.90;10.00;99447.00;;;;344902;28;90918;-90
2022/11/20 00:27:19;;;;;;;5.25;1.92;;;9.70;99.90;10.00;99443.00;;;;343852;28;82585;-90
2022/11/20 00:27:30;;;;;;;4.18;1.90;;;9.80;99.90;10.00;99444.00;;;;342366;28;90161;-90
2022/11/20 00:27:42;;;;;;;3.88;2.05;;;9.80;99.90;10.10;99450.00;;;;340212;28;82480;-90
2022/11/20 00:27:54;;;;;;;3.80;2.30;;;9.70;99.90;10.10;99448.00;;;;343205;28;90187;-90
2022/11/20 00:28:06;;;;;;;3.75;2.35;;;9.70;99.90;10.10;99446.00;;;;345178;28;83440;-91
2022/11/20 00:28:18;;;;;;;4.15;2.28;;;9.80;99.90;10.10;99447.00;;;;344545;28;90707;-91
2022/11/20 00:28:29;;;;;;;4.13;2.20;;;9.80;99.90;10.20;99451.00;;;;342195;28;83342;-90
2022/11/20 00:28:42;;;;;;;3.95;2.33;;;9.80;99.90;10.20;99453.00;;;;343448;28;87489;-91
2022/11/20 00:28:59;;;;;;;5.15;2.47;;;9.80;99.90;10.20;99457.00;;;;343870;28;83352;-90
2022/11/20 00:29:11;;;;;;;5.70;2.38;;;9.80;99.90;10.20;99443.00;;;;341338;28;88531;-91
2022/11/20 00:29:23;;;;;;;7.00;2.47;;;9.80;99.90;10.20;99455.00;;;;341786;28;83918;-91
2022/11/20 00:29:35;;;;;;;6.32;2.10;;;9.80;99.90;10.10;99447.00;;;;341282;28;89987;-91
2022/11/20 00:29:47;;;;;;;5.13;1.92;;;9.80;99.90;10.00;99448.00;;;;341614;28;84045;-90
2022/11/20 00:29:58;;;;;;;3.50;1.98;;;9.80;99.90;10.10;99444.00;;;;339844;28;89460;-90
2022/11/20 00:30:11;;;;;;;4.22;2.10;;;9.80;99.90;10.00;99454.00;;;;340459;28;83387;-91
2022/11/20 00:30:25;;;;;;;4.85;2.08;;;9.80;99.90;9.90;99454.00;;;;338614;28;90008;-90
2022/11/20 00:30:37;;;;;;;5.32;2.17;;;9.70;99.90;9.90;99451.00;;;;341883;28;83358;-90
2022/11/20 00:30:49;;;;;;;5.90;2.33;;;9.80;99.90;9.90;99451.00;;;;342570;28;90545;-90
2022/11/20 00:31:09;;;;;;;6.13;2.25;;;9.80;99.90;10.10;99449.00;;;;340449;28;83409;-90
2022/11/20 00:31:21;;;;;;;4.47;2.20;;;9.70;99.90;10.10;99453.00;;;;339747;28;92126;-91
2022/11/20 00:31:33;;;;;;;3.63;2.10;;;9.80;99.90;10.10;99454.00;;;;343248;28;82393;-90
2022/11/20 00:31:45;;;;;;;3.72;1.98;;;9.80;99.90;10.10;99451.00;;;;339943;28;89728;-90
2022/11/20 00:31:56;;;;;;;3.50;1.80;;;9.80;99.90;10.20;99445.00;;;;341611;28;83283;-90
2022/11/20 00:32:08;;;;;;;4.97;2.17;;;9.80;99.90;10.30;99456.00;;;;342521;28;90748;-91
2022/11/20 00:32:20;;;;;;;5.55;2.72;;;9.80;99.90;10.10;99448.00;;;;340065;28;83842;-90
2022/11/20 00:32:32;;;;;;;4.20;2.50;;;9.80;99.90;9.90;99458.00;;;;342546;28;91151;-90
2022/11/20 00:32:44;;;;;;;3.33;2.08;;;9.80;99.90;10.00;99451.00;;;;340301;28;83594;-91
2022/11/20 00:32:57;;;;;;;3.58;1.90;;;9.80;99.90;10.10;99454.00;;;;342560;28;91019;-91
2022/11/20 00:33:08;;;;;;;4.80;1.88;;;9.90;99.90;10.20;99452.00;;;;342986;28;82712;-90
2022/11/20 00:33:20;;;;;;;5.72;2.13;;;9.90;99.90;10.30;99455.00;;;;340996;28;91655;-90
2022/11/20 00:33:32;;;;;;;5.70;2.03;;;9.80;99.90;10.30;99455.00;;;;344496;28;82391;-90
2022/11/20 00:33:44;;;;;;;4.07;1.92;;;9.90;99.90;10.30;99448.00;;;;341379;28;89326;-90
2022/11/20 00:33:56;;;;;;;3.72;1.63;;;9.90;99.90;10.30;99449.00;;;;342955;28;82377;-91
2022/11/20 00:34:09;;;;;;;4.63;1.90;;;9.90;99.90;10.30;99450.00;;;;342869;28;88135;-91
2022/11/20 00:34:21;;;;;;;4.50;2.00;;;9.90;99.90;10.20;99456.00;;;;340390;28;83406;-91
2022/11/20 00:34:33;;;;;;;4.03;2.13;;;9.90;99.90;10.20;99452.00;;;;342693;28;89596;-89
2022/11/20 00:34:45;;;;;;;4.38;1.95;;;9.90;99.90;10.20;99446.00;;;;341379;28;83494;-90
2022/11/20 00:34:56;;;;;;;4.60;1.92;;;9.90;99.90;10.10;99458.00;;;;340030;28;89221;-91
2022/11/20 00:35:08;;;;;;;3.75;1.77;;;9.90;99.90;10.10;99454.00;;;;341767;28;82515;-91
2022/11/20 00:35:20;;;;;;;2.75;1.75;;;9.90;99.90;10.00;99450.00;;;;342564;28;90671;-90
2022/11/20 00:35:32;;;;;;;4.13;1.90;;;9.90;99.90;10.20;99446.00;;;;341856;28;82242;-90
2022/11/20 00:35:44;;;;;;;5.22;2.08;;;9.90;99.90;10.00;99451.00;;;;342937;28;88506;-90
2022/11/20 00:36:04;;;;;;;6.20;2.13;;;9.90;99.90;10.00;99448.00;;;;342838;28;83716;-90
2022/11/20 00:36:21;;;;;;;4.57;2.03;;;9.90;99.90;9.90;99448.00;;;;339981;28;89947;-90
2022/11/20 00:36:33;;;;;;;4.07;1.92;;;9.90;99.90;9.90;99449.00;;;;341785;28;82551;-89
2022/11/20 00:36:45;;;;;;;3.67;1.90;;;9.80;99.90;9.90;99452.00;;;;342471;28;89834;-91
2022/11/20 00:36:57;;;;;;;4.03;2.10;;;9.80;99.90;10.00;99449.00;;;;344278;28;84473;-91
2022/11/20 00:37:09;;;;;;;5.03;2.22;;;9.80;99.90;10.00;99446.00;;;;341490;28;89809;-90
2022/11/20 00:37:21;;;;;;;5.28;2.47;;;9.80;99.90;9.90;99448.00;;;;344144;28;82572;-90
2022/11/20 00:37:32;;;;;;;4.30;2.30;;;9.80;99.90;10.00;99446.00;;;;339949;28;90609;-90
2022/11/20 00:37:44;;;;;;;3.70;2.22;;;9.80;99.90;9.80;99457.00;;;;343056;28;83312;-90
2022/11/20 00:37:56;;;;;;;3.45;1.98;;;9.80;99.90;9.90;99437.00;;;;342365;28;91572;-91
2022/11/20 00:38:07;;;;;;;3.13;1.90;;;9.80;99.90;9.90;99446.00;;;;340167;28;82436;-90
2022/11/20 00:38:19;;;;;;;4.30;2.13;;;9.80;99.90;9.70;99447.00;;;;344135;28;87138;-90
2022/11/20 00:38:32;;;;;;;4.45;2.30;;;9.80;99.90;9.70;99449.00;;;;341728;28;83465;-90
2022/11/20 00:38:44;;;;;;;4.13;2.20;;;9.80;99.90;9.80;99450.00;;;;342645;28;89827;-91
2022/11/20 00:38:57;;;;;;;4.05;2.42;;;9.70;99.90;9.70;99436.00;;;;343075;28;82488;-91
2022/11/20 00:39:09;;;;;;;4.63;2.60;;;9.70;99.90;9.80;99457.00;;;;343896;28;91863;-90
2022/11/20 00:39:21;;;;;;;4.38;2.58;;;9.70;99.90;9.90;99451.00;;;;341563;28;83367;-91
2022/11/20 00:39:34;;;;;;;4.22;2.58;;;9.70;99.90;9.90;99451.00;;;;342672;28;89732;-91
2022/11/20 00:39:45;;;;;;;4.32;2.38;;;9.70;99.90;9.90;99444.00;;;;342843;28;83604;-92
2022/11/20 00:39:57;;;;;;;5.00;2.22;;;9.70;99.90;10.00;99444.00;;;;341029;28;90920;-91
2022/11/20 00:40:10;;;;;;;5.97;2.35;;;9.70;99.90;10.00;99451.00;;;;341744;28;82543;-90
2022/11/20 00:40:21;;;;;;;6.05;2.30;;;9.70;99.90;10.00;99447.00;;;;339955;28;89806;-91
2022/11/20 00:40:33;;;;;;;5.30;2.08;;;9.70;99.90;10.00;99443.00;;;;340090;28;83851;-90
2022/11/20 00:40:45;;;;;;;4.57;2.25;;;9.70;99.90;10.00;99446.00;;;;339732;28;91974;-91
2022/11/20 00:41:06;;;;;;;4.88;2.90;;;9.80;99.90;9.80;99443.00;;;;341321;28;85217;-90
2022/11/20 00:41:18;;;;;;;4.65;2.63;;;9.80;99.90;9.90;99445.00;;;;341236;28;88802;-90
2022/11/20 00:41:30;;;;;;;5.10;2.60;;;9.70;99.90;9.90;99448.00;;;;340462;28;82267;-90
2022/11/20 00:41:41;;;;;;;4.57;2.65;;;9.70;99.90;10.00;99442.00;;;;344046;28;89503;-90
2022/11/20 00:41:53;;;;;;;3.88;2.60;;;9.70;99.90;10.00;99445.00;;;;341713;28;82455;-91
2022/11/20 00:42:05;;;;;;;3.53;2.38;;;9.70;99.90;10.00;99445.00;;;;342703;28;89390;-90
2022/11/20 00:42:17;;;;;;;3.40;2.08;;;9.70;99.90;10.00;99443.00;;;;340143;28;83366;-90
2022/11/20 00:42:30;;;;;;;3.97;2.33;;;9.70;99.90;10.00;99444.00;;;;342445;28;91269;-90
2022/11/20 00:42:42;;;;;;;4.25;2.72;;;9.70;99.90;10.10;99451.00;;;;341507;28;82558;-90
2022/11/20 00:42:54;;;;;;;4.95;2.67;;;9.70;99.90;10.10;99440.00;;;;340032;28;89731;-91
2022/11/20 00:43:06;;;;;;;6.82;2.85;;;9.70;99.90;10.00;99444.00;;;;342626;28;82773;-90
2022/11/20 00:43:18;;;;;;;6.85;2.88;;;9.80;99.90;9.90;99438.00;;;;341121;28;90763;-90
2022/11/20 00:43:30;;;;;;;6.65;2.90;;;9.80;99.90;9.90;99433.00;;;;340324;28;83264;-91
2022/11/20 00:43:42;;;;;;;4.75;2.70;;;9.70;99.90;9.80;99448.00;;;;341260;28;90438;-91
2022/11/20 00:43:54;;;;;;;5.13;2.92;;;9.70;99.90;9.70;99448.00;;;;340140;28;84831;-89
2022/11/20 00:44:06;;;;;;;4.82;3.14;;;9.70;99.90;9.90;99444.00;;;;342378;28;91615;-91
2022/11/20 00:44:18;;;;;;;5.53;3.20;;;9.70;99.90;9.90;99440.00;;;;341747;28;82473;-90
2022/11/20 00:44:29;;;;;;;4.15;2.33;;;9.70;99.90;9.90;99436.00;;;;341225;28;91040;-90
2022/11/20 00:44:41;;;;;;;4.43;2.47;;;9.70;99.90;10.00;99438.00;;;;340288;28;82480;-90
2022/11/20 00:44:53;;;;;;;6.03;2.70;;;9.70;99.90;10.10;99440.00;;;;342242;28;87460;-91
2022/11/20 00:45:05;;;;;;;6.95;2.78;;;9.70;99.90;10.10;99436.00;;;;340356;28;83609;-90
2022/11/20 00:45:17;;;;;;;5.82;2.50;;;9.70;99.90;9.80;99451.00;;;;341046;28;91359;-89
2022/11/20 00:45:29;;;;;;;5.25;2.40;;;9.70;99.90;9.70;99442.00;;;;341532;28;83509;-90
2022/11/20 00:45:41;;;;;;;4.85;2.50;;;9.70;99.90;9.60;99440.00;;;;341292;28;89210;-91
2022/11/20 00:46:08;;;;;;;4.35;2.40;;;9.70;99.90;9.80;99444.00;;;;344484;28;82396;-91
2022/11/20 00:46:22;;;;;;;4.70;2.92;;;9.70;99.90;9.80;99436.00;;;;343717;28;89950;-91
2022/11/20 00:46:34;;;;;;;4.15;2.72;;;9.70;99.90;9.90;99452.00;;;;341445;28;83620;-91
2022/11/20 00:46:46;;;;;;;3.83;2.53;;;9.70;99.90;9.80;99445.00;;;;341375;28;88691;-92
2022/11/20 00:46:58;;;;;;;3.42;2.30;;;9.70;99.90;9.80;99438.00;;;;342809;28;83416;-90
2022/11/20 00:47:10;;;;;;;4.35;2.47;;;9.70;99.90;9.80;99444.00;;;;339991;28;88447;-91
2022/11/20 00:47:21;;;;;;;4.60;2.70;;;9.60;99.90;9.80;99443.00;;;;342972;28;83301;-91
2022/11/20 00:47:33;;;;;;;4.53;2.78;;;9.60;99.90;9.90;99442.00;;;;341384;28;87131;-91
2022/11/20 00:47:45;;;;;;;4.97;3.00;;;9.60;99.90;9.90;99446.00;;;;343020;28;83370;-91
2022/11/20 00:47:57;;;;;;;6.10;3.05;;;9.60;99.90;9.70;99444.00;;;;342382;28;91027;-90
2022/11/20 00:48:09;;;;;;;5.60;2.90;;;9.70;99.90;9.60;99444.00;;;;341608;28;83809;-90
2022/11/20 00:48:21;;;;;;;5.57;2.97;;;9.60;99.90;9.40;99439.00;;;;342727;28;88936;-91
2022/11/20 00:48:33;;;;;;;5.28;3.13;;;9.60;99.90;9.40;99446.00;;;;341624;28;83484;-90
2022/11/20 00:48:45;;;;;;;6.30;3.50;;;9.60;99.90;9.30;99447.00;;;;341291;28;89400;-90
2022/11/20 00:48:57;;;;;;;7.47;3.47;;;9.60;99.90;9.30;99444.00;;;;341800;28;82402;-91
2022/11/20 00:49:09;;;;;;;6.35;3.10;;;9.50;99.90;9.30;99449.00;;;;341084;28;91129;-91
2022/11/20 00:49:21;;;;;;;5.90;3.53;;;9.50;99.90;9.30;99450.00;;;;342657;28;82671;-90
2022/11/20 00:49:33;;;;;;;6.70;3.97;;;9.50;99.90;9.40;99440.00;;;;341232;28;89585;-91
2022/11/20 00:49:45;;;;;;;5.72;3.67;;;9.50;99.90;9.30;99454.00;;;;340300;28;83485;-91
2022/11/20 00:49:57;;;;;;;5.05;3.42;;;9.50;99.90;9.40;99446.00;;;;342646;28;89597;-91
2022/11/20 00:50:09;;;;;;;5.70;3.50;;;9.50;99.90;9.50;99443.00;;;;342995;28;83405;-90
2022/11/20 00:50:20;;;;;;;5.72;3.45;;;9.50;99.90;9.40;99445.00;;;;338678;28;89957;-90
2022/11/20 00:50:32;;;;;;;4.55;3.30;;;9.50;99.90;9.50;99441.00;;;;340188;28;83302;-90
2022/11/20 00:50:44;;;;;;;5.93;3.40;;;9.50;99.90;9.50;99445.00;;;;340038;28;89076;-91
2022/11/20 00:50:57;;;;;;;7.05;3.30;;;9.50;99.90;9.40;99440.00;;;;340483;28;83342;-91
2022/11/20 00:51:09;;;;;;;7.10;3.33;;;9.40;99.90;9.40;99442.00;;;;342706;28;89493;-92
2022/11/20 00:51:23;;;;;;;6.40;3.30;;;9.40;99.90;9.30;99450.00;;;;340658;28;83706;-91
2022/11/20 00:51:35;;;;;;;5.82;3.50;;;9.40;99.90;9.30;99445.00;;;;342689;28;92115;-90
2022/11/20 00:51:47;;;;;;;6.20;3.78;;;9.40;99.90;9.40;99444.00;;;;343010;28;84323;-90
2022/11/20 00:51:59;;;;;;;6.25;3.60;;;9.40;99.90;9.40;99449.00;;;;339758;28;88661;-90
2022/11/20 00:52:10;;;;;;;5.35;3.15;;;9.40;99.90;9.40;99450.00;;;;341695;28;82448;-90
2022/11/20 00:52:22;;;;;;;5.15;2.97;;;9.40;99.90;9.30;99444.00;;;;341168;28;91375;-91
2022/11/20 00:52:34;;;;;;;4.70;3.28;;;9.40;99.90;9.30;99453.00;;;;344130;28;83453;-89
2022/11/20 00:52:46;;;;;;;5.68;3.35;;;9.30;99.90;9.40;99459.00;;;;339634;28;88683;-91
2022/11/20 00:52:58;;;;;;;7.00;3.95;;;9.30;99.90;9.40;99452.00;;;;344242;28;83574;-91
2022/11/20 00:53:09;;;;;;;6.90;3.92;;;9.30;99.90;9.40;99449.00;;;;342666;28;89321;-91
2022/11/20 00:53:21;;;;;;;7.80;4.30;;;9.30;99.90;9.40;99446.00;;;;341699;28;83440;-91
2022/11/20 00:53:33;;;;;;;7.35;3.80;;;9.30;99.90;9.30;99448.00;;;;342713;28;88440;-90
2022/11/20 00:53:45;;;;;;;7.43;3.97;;;9.30;99.90;9.20;99452.00;;;;341607;28;83672;-90
2022/11/20 00:53:59;;;;;;;6.55;3.88;;;9.30;99.90;9.20;99445.00;;;;339857;28;90853;-91
2022/11/20 00:54:11;;;;;;;6.43;3.65;;;9.30;99.90;9.40;99457.00;;;;342989;28;83436;-90
2022/11/20 00:54:23;;;;;;;6.65;3.88;;;9.30;99.90;9.50;99458.00;;;;342635;28;90122;-91
2022/11/20 00:54:35;;;;;;;6.45;4.05;;;9.30;99.90;9.50;99458.00;;;;341697;28;83218;-90
2022/11/20 00:54:47;;;;;;;5.28;4.10;;;9.30;99.90;9.50;99462.00;;;;342385;28;90866;-91
2022/11/20 00:54:59;;;;;;;4.88;3.78;;;9.30;99.90;9.40;99461.00;;;;343232;28;82376;-91
2022/11/20 00:55:10;;;;;;;5.50;3.60;;;9.30;99.90;9.40;99456.00;;;;341015;28;90278;-91
2022/11/20 00:55:22;;;;;;;6.18;3.63;;;9.30;99.90;9.40;99456.00;;;;341644;28;83336;-90
2022/11/20 00:55:34;;;;;;;6.88;3.88;;;9.30;99.90;9.30;99447.00;;;;340036;28;89379;-91
2022/11/20 00:56:03;;;;;;;6.22;3.65;;;9.30;99.90;9.20;99454.00;;;;341721;28;83439;-89
2022/11/20 00:56:17;;;;;;;6.30;3.95;;;9.30;99.90;9.20;99458.00;;;;339881;28;89645;-90
2022/11/20 00:56:29;;;;;;;6.18;4.02;;;9.30;99.90;9.20;99461.00;;;;340207;28;83550;-91
2022/11/20 00:56:41;;;;;;;7.88;3.95;;;9.20;99.90;9.30;99459.00;;;;340970;28;92037;-91
2022/11/20 00:56:53;;;;;;;8.50;3.92;;;9.20;99.90;9.30;99449.00;;;;344078;28;84035;-91
2022/11/20 00:57:05;;;;;;;10.12;4.88;;;9.20;99.90;9.20;99450.00;;;;342427;28;92232;-91
2022/11/20 00:57:17;;;;;;;8.25;4.90;;;9.30;99.90;9.20;99449.00;;;;341707;28;83236;-90